This is the latest recevied weather packets stored in our database for station/object W1BKW. If no packets are shown the sender has not sent any weather packets the latest 10 day(s).
| Time | Temp. | Humidity | Pressure | Rain* | Wind** | Luminosity | Snow |
|---|---|---|---|---|---|---|---|
| 1788138269 | 60° F | 99% | 762.6 mmHg | 0.12 in | - | 0 W/m² | - |
| 1788137366 | 59° F | 99% | 762.2 mmHg | 0.21 in | - | 0 W/m² | - |
| 1788136465 | 61° F | 97% | 762.1 mmHg | 0.19 in | - | 0 W/m² | - |
| 1788135565 | 66° F | 89% | 761.1 mmHg | 0 in | - | 0 W/m² | - |
| 1788134665 | 66° F | 87% | 760.4 mmHg | 0 in | - | 0 W/m² | - |
| 1788133760 | 66° F | 85% | 760.3 mmHg | 0 in | - | 0 W/m² | - |
| 1788132857 | 66° F | 86% | 760.3 mmHg | 0 in | - | 0 W/m² | - |
| 1788131957 | 70° F | 82% | 760.4 mmHg | 0 in | - | 0 W/m² | - |
| 1788131053 | 70° F | 75% | 760.5 mmHg | 0 in | - | 0 W/m² | - |
| 1788130148 | 70° F | 75% | 760.4 mmHg | 0 in | - | 3 W/m² | - |
| 1788129246 | 69° F | 81% | 760.4 mmHg | 0 in | - | 0 W/m² | - |
| 1788128341 | 69° F | 78% | 760.3 mmHg | 0 in | - | 0 W/m² | - |
| 1788127438 | 70° F | 80% | 760.3 mmHg | 0 in | - | 1 W/m² | - |
| 1788126537 | 70° F | 74% | 760.5 mmHg | 0 in | - | 0 W/m² | - |
| 1788125634 | 70° F | 77% | 760.3 mmHg | 0 in | - | 4 W/m² | - |
| 1788124730 | 71° F | 78% | 760.3 mmHg | 0 in | - | 6 W/m² | - |
| 1788123825 | 71° F | 74% | 760.4 mmHg | 0 in | - | 11 W/m² | - |
| 1788122924 | 70° F | 75% | 760.3 mmHg | 0 in | - | 28 W/m² | - |
| 1788122020 | 70° F | 76% | 760.6 mmHg | 0 in | - | 11 W/m² | - |
| 1788121116 | 70° F | 76% | 760.4 mmHg | 0 in | - | 17 W/m² | - |
| 1788120217 | 70° F | 80% | 760.7 mmHg | 0 in | - | 12 W/m² | - |
| 1788119317 | 70° F | 77% | 760.7 mmHg | 0 in | - | 9 W/m² | - |
| 1788118411 | 71° F | 76% | 760.9 mmHg | 0 in | - | 19 W/m² | - |
| 1788117508 | 71° F | 76% | 760.7 mmHg | 0 in | - | 54 W/m² | - |
| 1788116603 | 71° F | 78% | 761 mmHg | 0 in | - | 65 W/m² | - |
* Rain latest hour (hover to see other rain measurements)
** Current wind speed in m/s (hover to see current wind gust speed)